sensor_id;sensor_type;location;lat;lon;timestamp;P1;durP1;ratioP1;P2;durP2;ratioP2
19219;SDS011;9744;49.364;7.484;2023-07-08T00:01:08;10.52;;;7.65;;
19219;SDS011;9744;49.364;7.484;2023-07-08T00:03:38;12.95;;;7.22;;
19219;SDS011;9744;49.364;7.484;2023-07-08T00:06:07;18.58;;;8.20;;
19219;SDS011;9744;49.364;7.484;2023-07-08T00:08:38;11.63;;;7.47;;
19219;SDS011;9744;49.364;7.484;2023-07-08T00:11:07;14.93;;;7.88;;
19219;SDS011;9744;49.364;7.484;2023-07-08T00:13:37;10.48;;;7.65;;
19219;SDS011;9744;49.364;7.484;2023-07-08T00:16:08;14.13;;;8.27;;
19219;SDS011;9744;49.364;7.484;2023-07-08T00:18:38;11.70;;;7.35;;
19219;SDS011;9744;49.364;7.484;2023-07-08T00:21:08;12.15;;;7.97;;
19219;SDS011;9744;49.364;7.484;2023-07-08T00:23:44;13.55;;;8.23;;
19219;SDS011;9744;49.364;7.484;2023-07-08T00:26:13;14.20;;;8.40;;
19219;SDS011;9744;49.364;7.484;2023-07-08T00:28:45;14.93;;;8.13;;
19219;SDS011;9744;49.364;7.484;2023-07-08T00:31:14;15.50;;;7.60;;
19219;SDS011;9744;49.364;7.484;2023-07-08T00:33:41;11.80;;;7.18;;
19219;SDS011;9744;49.364;7.484;2023-07-08T00:36:10;12.02;;;7.93;;
19219;SDS011;9744;49.364;7.484;2023-07-08T00:38:40;15.45;;;7.95;;
19219;SDS011;9744;49.364;7.484;2023-07-08T00:41:11;12.70;;;7.82;;
19219;SDS011;9744;49.364;7.484;2023-07-08T00:43:45;14.95;;;7.53;;
19219;SDS011;9744;49.364;7.484;2023-07-08T00:46:18;10.23;;;7.53;;
19219;SDS011;9744;49.364;7.484;2023-07-08T00:48:56;11.40;;;7.57;;
19219;SDS011;9744;49.364;7.484;2023-07-08T00:51:30;10.45;;;7.50;;
19219;SDS011;9744;49.364;7.484;2023-07-08T00:53:57;12.98;;;7.78;;
19219;SDS011;9744;49.364;7.484;2023-07-08T00:56:25;11.65;;;7.28;;
19219;SDS011;9744;49.364;7.484;2023-07-08T00:58:57;12.50;;;7.95;;
19219;SDS011;9744;49.364;7.484;2023-07-08T01:01:29;12.45;;;7.53;;
19219;SDS011;9744;49.364;7.484;2023-07-08T01:04:02;12.02;;;6.85;;
19219;SDS011;9744;49.364;7.484;2023-07-08T01:06:34;13.02;;;7.07;;
19219;SDS011;9744;49.364;7.484;2023-07-08T01:09:05;12.40;;;6.95;;
19219;SDS011;9744;49.364;7.484;2023-07-08T01:11:36;15.05;;;7.80;;
19219;SDS011;9744;49.364;7.484;2023-07-08T01:14:06;11.00;;;6.82;;
19219;SDS011;9744;49.364;7.484;2023-07-08T01:16:37;10.10;;;6.93;;
19219;SDS011;9744;49.364;7.484;2023-07-08T01:19:06;14.63;;;7.55;;
19219;SDS011;9744;49.364;7.484;2023-07-08T01:21:37;14.15;;;7.93;;
19219;SDS011;9744;49.364;7.484;2023-07-08T01:24:10;10.30;;;7.07;;
19219;SDS011;9744;49.364;7.484;2023-07-08T01:26:39;10.60;;;7.15;;
19219;SDS011;9744;49.364;7.484;2023-07-08T01:29:10;12.00;;;7.32;;
19219;SDS011;9744;49.364;7.484;2023-07-08T01:31:39;12.18;;;7.68;;
19219;SDS011;9744;49.364;7.484;2023-07-08T01:34:08;13.38;;;7.63;;
19219;SDS011;9744;49.364;7.484;2023-07-08T01:36:38;12.43;;;7.00;;
19219;SDS011;9744;49.364;7.484;2023-07-08T01:39:11;15.18;;;8.25;;
19219;SDS011;9744;49.364;7.484;2023-07-08T01:41:40;10.77;;;6.82;;
19219;SDS011;9744;49.364;7.484;2023-07-08T01:44:18;14.73;;;7.63;;
19219;SDS011;9744;49.364;7.484;2023-07-08T01:46:48;12.57;;;7.00;;
19219;SDS011;9744;49.364;7.484;2023-07-08T01:49:17;11.77;;;6.97;;
19219;SDS011;9744;49.364;7.484;2023-07-08T01:51:45;15.40;;;7.53;;
19219;SDS011;9744;49.364;7.484;2023-07-08T01:54:15;12.15;;;7.15;;
19219;SDS011;9744;49.364;7.484;2023-07-08T01:56:42;13.13;;;7.45;;
19219;SDS011;9744;49.364;7.484;2023-07-08T01:59:11;11.82;;;6.95;;
19219;SDS011;9744;49.364;7.484;2023-07-08T02:01:39;13.10;;;7.10;;
19219;SDS011;9744;49.364;7.484;2023-07-08T02:04:06;9.55;;;6.80;;
19219;SDS011;9744;49.364;7.484;2023-07-08T02:06:37;10.27;;;7.43;;
19219;SDS011;9744;49.364;7.484;2023-07-08T02:09:09;10.57;;;6.47;;
19219;SDS011;9744;49.364;7.484;2023-07-08T02:11:38;11.60;;;6.90;;
19219;SDS011;9744;49.364;7.484;2023-07-08T02:14:07;13.00;;;6.45;;
19219;SDS011;9744;49.364;7.484;2023-07-08T02:16:34;9.98;;;6.72;;
19219;SDS011;9744;49.364;7.484;2023-07-08T02:19:01;13.27;;;6.88;;
19219;SDS011;9744;49.364;7.484;2023-07-08T02:21:30;9.07;;;6.25;;
19219;SDS011;9744;49.364;7.484;2023-07-08T02:24:00;8.05;;;6.22;;
19219;SDS011;9744;49.364;7.484;2023-07-08T02:26:27;9.98;;;6.05;;
19219;SDS011;9744;49.364;7.484;2023-07-08T02:28:58;11.57;;;6.57;;
19219;SDS011;9744;49.364;7.484;2023-07-08T02:31:26;11.70;;;6.85;;
19219;SDS011;9744;49.364;7.484;2023-07-08T02:33:53;10.63;;;6.50;;
19219;SDS011;9744;49.364;7.484;2023-07-08T02:36:21;12.20;;;6.53;;
19219;SDS011;9744;49.364;7.484;2023-07-08T02:38:49;9.68;;;6.20;;
19219;SDS011;9744;49.364;7.484;2023-07-08T02:41:17;8.23;;;6.60;;
19219;SDS011;9744;49.364;7.484;2023-07-08T02:43:45;10.10;;;6.82;;
19219;SDS011;9744;49.364;7.484;2023-07-08T02:46:14;10.25;;;6.72;;
19219;SDS011;9744;49.364;7.484;2023-07-08T02:48:41;9.05;;;6.70;;
19219;SDS011;9744;49.364;7.484;2023-07-08T02:51:08;9.57;;;6.65;;
19219;SDS011;9744;49.364;7.484;2023-07-08T02:53:35;8.50;;;6.28;;
19219;SDS011;9744;49.364;7.484;2023-07-08T02:56:03;10.65;;;6.88;;
19219;SDS011;9744;49.364;7.484;2023-07-08T02:58:30;9.82;;;6.57;;
19219;SDS011;9744;49.364;7.484;2023-07-08T03:00:59;11.25;;;6.93;;
19219;SDS011;9744;49.364;7.484;2023-07-08T03:03:28;9.65;;;6.10;;
19219;SDS011;9744;49.364;7.484;2023-07-08T03:05:56;11.80;;;6.55;;
19219;SDS011;9744;49.364;7.484;2023-07-08T03:08:24;8.95;;;6.72;;
19219;SDS011;9744;49.364;7.484;2023-07-08T03:10:54;8.48;;;6.68;;
19219;SDS011;9744;49.364;7.484;2023-07-08T03:13:22;9.77;;;7.28;;
19219;SDS011;9744;49.364;7.484;2023-07-08T03:15:50;9.18;;;6.88;;
19219;SDS011;9744;49.364;7.484;2023-07-08T03:18:17;10.30;;;6.70;;
19219;SDS011;9744;49.364;7.484;2023-07-08T03:20:48;9.70;;;6.60;;
19219;SDS011;9744;49.364;7.484;2023-07-08T03:23:16;13.68;;;7.43;;
19219;SDS011;9744;49.364;7.484;2023-07-08T03:25:44;14.35;;;7.20;;
19219;SDS011;9744;49.364;7.484;2023-07-08T03:28:12;10.27;;;7.05;;
19219;SDS011;9744;49.364;7.484;2023-07-08T03:30:42;9.35;;;6.70;;
19219;SDS011;9744;49.364;7.484;2023-07-08T03:33:11;7.32;;;5.63;;
19219;SDS011;9744;49.364;7.484;2023-07-08T03:35:41;9.88;;;6.80;;
19219;SDS011;9744;49.364;7.484;2023-07-08T03:38:09;9.98;;;6.90;;
19219;SDS011;9744;49.364;7.484;2023-07-08T03:40:37;12.60;;;7.40;;
19219;SDS011;9744;49.364;7.484;2023-07-08T03:43:04;11.05;;;6.68;;
19219;SDS011;9744;49.364;7.484;2023-07-08T03:45:31;10.27;;;7.28;;
19219;SDS011;9744;49.364;7.484;2023-07-08T03:47:58;9.38;;;6.80;;
19219;SDS011;9744;49.364;7.484;2023-07-08T03:50:26;9.75;;;7.25;;
19219;SDS011;9744;49.364;7.484;2023-07-08T03:55:48;9.40;;;6.93;;
19219;SDS011;9744;49.364;7.484;2023-07-08T03:58:16;10.27;;;6.82;;
19219;SDS011;9744;49.364;7.484;2023-07-08T04:00:43;10.52;;;6.40;;
19219;SDS011;9744;49.364;7.484;2023-07-08T04:03:11;9.75;;;6.28;;
19219;SDS011;9744;49.364;7.484;2023-07-08T04:05:39;9.10;;;6.68;;
19219;SDS011;9744;49.364;7.484;2023-07-08T04:08:06;9.10;;;6.93;;
19219;SDS011;9744;49.364;7.484;2023-07-08T04:10:35;10.35;;;6.28;;
19219;SDS011;9744;49.364;7.484;2023-07-08T04:13:02;10.82;;;7.10;;
19219;SDS011;9744;49.364;7.484;2023-07-08T04:15:29;10.80;;;7.00;;
19219;SDS011;9744;49.364;7.484;2023-07-08T04:17:57;10.68;;;7.20;;
19219;SDS011;9744;49.364;7.484;2023-07-08T04:20:24;10.85;;;6.90;;
19219;SDS011;9744;49.364;7.484;2023-07-08T04:22:52;11.48;;;7.00;;
19219;SDS011;9744;49.364;7.484;2023-07-08T04:25:20;9.55;;;6.80;;
19219;SDS011;9744;49.364;7.484;2023-07-08T04:27:51;8.50;;;6.35;;
19219;SDS011;9744;49.364;7.484;2023-07-08T04:30:20;10.05;;;6.40;;
19219;SDS011;9744;49.364;7.484;2023-07-08T04:32:50;11.93;;;7.20;;
19219;SDS011;9744;49.364;7.484;2023-07-08T04:35:18;9.43;;;6.75;;
19219;SDS011;9744;49.364;7.484;2023-07-08T04:37:45;9.82;;;7.28;;
19219;SDS011;9744;49.364;7.484;2023-07-08T04:40:17;11.32;;;7.70;;
19219;SDS011;9744;49.364;7.484;2023-07-08T04:42:46;11.77;;;8.63;;
19219;SDS011;9744;49.364;7.484;2023-07-08T04:45:16;12.77;;;9.02;;
19219;SDS011;9744;49.364;7.484;2023-07-08T04:47:44;13.35;;;9.20;;
19219;SDS011;9744;49.364;7.484;2023-07-08T04:50:16;14.27;;;10.25;;
19219;SDS011;9744;49.364;7.484;2023-07-08T04:52:54;14.45;;;9.50;;
19219;SDS011;9744;49.364;7.484;2023-07-08T04:55:22;11.25;;;9.05;;
19219;SDS011;9744;49.364;7.484;2023-07-08T04:57:59;11.52;;;8.25;;
19219;SDS011;9744;49.364;7.484;2023-07-08T05:00:29;12.77;;;9.02;;
19219;SDS011;9744;49.364;7.484;2023-07-08T05:02:56;12.57;;;8.63;;
19219;SDS011;9744;49.364;7.484;2023-07-08T05:05:23;12.50;;;8.95;;
19219;SDS011;9744;49.364;7.484;2023-07-08T05:07:51;16.67;;;7.63;;
19219;SDS011;9744;49.364;7.484;2023-07-08T05:10:18;13.20;;;7.75;;
19219;SDS011;9744;49.364;7.484;2023-07-08T05:12:46;15.85;;;11.98;;
19219;SDS011;9744;49.364;7.484;2023-07-08T05:15:14;22.50;;;14.55;;
19219;SDS011;9744;49.364;7.484;2023-07-08T05:17:43;13.93;;;9.25;;
19219;SDS011;9744;49.364;7.484;2023-07-08T05:20:12;18.65;;;13.23;;
19219;SDS011;9744;49.364;7.484;2023-07-08T05:22:41;21.15;;;13.77;;
19219;SDS011;9744;49.364;7.484;2023-07-08T05:25:09;15.70;;;8.93;;
19219;SDS011;9744;49.364;7.484;2023-07-08T05:27:37;13.07;;;8.85;;
19219;SDS011;9744;49.364;7.484;2023-07-08T05:30:05;14.20;;;8.82;;
19219;SDS011;9744;49.364;7.484;2023-07-08T05:32:33;15.48;;;10.20;;
19219;SDS011;9744;49.364;7.484;2023-07-08T05:35:03;11.45;;;7.88;;
19219;SDS011;9744;49.364;7.484;2023-07-08T05:37:31;10.18;;;8.27;;
19219;SDS011;9744;49.364;7.484;2023-07-08T05:39:59;11.77;;;7.18;;
19219;SDS011;9744;49.364;7.484;2023-07-08T05:42:29;10.73;;;7.07;;
19219;SDS011;9744;49.364;7.484;2023-07-08T05:44:57;12.98;;;8.27;;
19219;SDS011;9744;49.364;7.484;2023-07-08T05:47:24;12.32;;;8.85;;
19219;SDS011;9744;49.364;7.484;2023-07-08T05:49:51;16.13;;;10.90;;
19219;SDS011;9744;49.364;7.484;2023-07-08T05:52:20;15.93;;;7.95;;
19219;SDS011;9744;49.364;7.484;2023-07-08T05:54:48;15.50;;;9.23;;
19219;SDS011;9744;49.364;7.484;2023-07-08T05:57:15;14.23;;;8.82;;
19219;SDS011;9744;49.364;7.484;2023-07-08T05:59:43;13.15;;;7.90;;
19219;SDS011;9744;49.364;7.484;2023-07-08T06:02:10;11.48;;;7.38;;
19219;SDS011;9744;49.364;7.484;2023-07-08T06:04:38;13.27;;;8.32;;
19219;SDS011;9744;49.364;7.484;2023-07-08T06:07:06;12.52;;;7.72;;
19219;SDS011;9744;49.364;7.484;2023-07-08T06:09:35;12.07;;;7.50;;
19219;SDS011;9744;49.364;7.484;2023-07-08T06:12:02;10.77;;;6.63;;
19219;SDS011;9744;49.364;7.484;2023-07-08T06:14:30;10.10;;;6.82;;
19219;SDS011;9744;49.364;7.484;2023-07-08T06:16:57;9.35;;;6.43;;
19219;SDS011;9744;49.364;7.484;2023-07-08T06:19:25;17.70;;;7.30;;
19219;SDS011;9744;49.364;7.484;2023-07-08T06:21:52;14.35;;;7.55;;
19219;SDS011;9744;49.364;7.484;2023-07-08T06:24:21;11.43;;;7.20;;
19219;SDS011;9744;49.364;7.484;2023-07-08T06:26:50;16.45;;;7.20;;
19219;SDS011;9744;49.364;7.484;2023-07-08T06:29:17;11.98;;;7.13;;
19219;SDS011;9744;49.364;7.484;2023-07-08T06:31:44;13.63;;;7.53;;
19219;SDS011;9744;49.364;7.484;2023-07-08T06:34:12;12.52;;;7.07;;
19219;SDS011;9744;49.364;7.484;2023-07-08T06:36:39;11.55;;;6.43;;
19219;SDS011;9744;49.364;7.484;2023-07-08T06:39:06;16.25;;;7.57;;
19219;SDS011;9744;49.364;7.484;2023-07-08T06:41:36;13.93;;;6.63;;
19219;SDS011;9744;49.364;7.484;2023-07-08T06:44:05;10.52;;;6.55;;
19219;SDS011;9744;49.364;7.484;2023-07-08T06:46:38;12.32;;;6.82;;
19219;SDS011;9744;49.364;7.484;2023-07-08T06:49:06;14.15;;;6.72;;
19219;SDS011;9744;49.364;7.484;2023-07-08T06:51:34;10.02;;;6.35;;
19219;SDS011;9744;49.364;7.484;2023-07-08T06:54:01;13.55;;;6.60;;
19219;SDS011;9744;49.364;7.484;2023-07-08T06:56:36;11.48;;;6.32;;
19219;SDS011;9744;49.364;7.484;2023-07-08T06:59:06;11.50;;;6.32;;
19219;SDS011;9744;49.364;7.484;2023-07-08T07:01:34;15.30;;;6.97;;
19219;SDS011;9744;49.364;7.484;2023-07-08T07:04:02;15.13;;;6.68;;
19219;SDS011;9744;49.364;7.484;2023-07-08T07:06:30;13.95;;;6.03;;
19219;SDS011;9744;49.364;7.484;2023-07-08T07:08:57;9.05;;;6.25;;
19219;SDS011;9744;49.364;7.484;2023-07-08T07:11:24;14.13;;;6.45;;
19219;SDS011;9744;49.364;7.484;2023-07-08T07:13:51;9.57;;;5.80;;
19219;SDS011;9744;49.364;7.484;2023-07-08T07:16:20;13.25;;;6.32;;
19219;SDS011;9744;49.364;7.484;2023-07-08T07:18:47;14.05;;;5.65;;
19219;SDS011;9744;49.364;7.484;2023-07-08T07:21:17;13.07;;;6.25;;
19219;SDS011;9744;49.364;7.484;2023-07-08T07:23:44;9.57;;;5.47;;
19219;SDS011;9744;49.364;7.484;2023-07-08T07:26:12;12.35;;;5.75;;
19219;SDS011;9744;49.364;7.484;2023-07-08T07:28:39;12.90;;;5.90;;
19219;SDS011;9744;49.364;7.484;2023-07-08T07:31:06;14.27;;;5.85;;
19219;SDS011;9744;49.364;7.484;2023-07-08T07:33:37;12.77;;;5.65;;
19219;SDS011;9744;49.364;7.484;2023-07-08T07:36:05;15.95;;;5.85;;
19219;SDS011;9744;49.364;7.484;2023-07-08T07:38:33;9.55;;;5.60;;
19219;SDS011;9744;49.364;7.484;2023-07-08T07:41:00;10.90;;;5.85;;
19219;SDS011;9744;49.364;7.484;2023-07-08T07:43:31;16.35;;;6.70;;
19219;SDS011;9744;49.364;7.484;2023-07-08T07:45:59;13.80;;;6.25;;
19219;SDS011;9744;49.364;7.484;2023-07-08T07:48:26;15.05;;;6.25;;
19219;SDS011;9744;49.364;7.484;2023-07-08T07:50:55;16.95;;;6.05;;
19219;SDS011;9744;49.364;7.484;2023-07-08T07:53:22;12.75;;;6.47;;
19219;SDS011;9744;49.364;7.484;2023-07-08T07:55:55;12.05;;;6.53;;
19219;SDS011;9744;49.364;7.484;2023-07-08T07:58:23;14.63;;;7.28;;
19219;SDS011;9744;49.364;7.484;2023-07-08T08:00:50;9.85;;;5.95;;
19219;SDS011;9744;49.364;7.484;2023-07-08T08:03:18;14.55;;;5.90;;
19219;SDS011;9744;49.364;7.484;2023-07-08T08:05:46;13.75;;;6.03;;
19219;SDS011;9744;49.364;7.484;2023-07-08T08:08:15;10.25;;;5.68;;
19219;SDS011;9744;49.364;7.484;2023-07-08T08:10:43;9.75;;;5.57;;
19219;SDS011;9744;49.364;7.484;2023-07-08T08:13:10;9.48;;;5.70;;
19219;SDS011;9744;49.364;7.484;2023-07-08T08:15:38;12.57;;;5.28;;
19219;SDS011;9744;49.364;7.484;2023-07-08T08:18:05;15.02;;;6.32;;
19219;SDS011;9744;49.364;7.484;2023-07-08T08:20:33;14.07;;;5.72;;
19219;SDS011;9744;49.364;7.484;2023-07-08T08:23:01;25.05;;;5.80;;
19219;SDS011;9744;49.364;7.484;2023-07-08T08:25:29;10.00;;;4.97;;
19219;SDS011;9744;49.364;7.484;2023-07-08T08:27:57;11.38;;;5.80;;
19219;SDS011;9744;49.364;7.484;2023-07-08T08:30:24;8.32;;;4.90;;
19219;SDS011;9744;49.364;7.484;2023-07-08T08:32:52;8.20;;;5.22;;
19219;SDS011;9744;49.364;7.484;2023-07-08T08:35:19;7.32;;;5.20;;
19219;SDS011;9744;49.364;7.484;2023-07-08T08:37:46;10.93;;;5.20;;
19219;SDS011;9744;49.364;7.484;2023-07-08T08:40:15;8.55;;;5.13;;
19219;SDS011;9744;49.364;7.484;2023-07-08T08:42:46;10.88;;;5.63;;
19219;SDS011;9744;49.364;7.484;2023-07-08T08:45:19;13.13;;;5.50;;
19219;SDS011;9744;49.364;7.484;2023-07-08T08:47:54;12.43;;;5.55;;
19219;SDS011;9744;49.364;7.484;2023-07-08T08:50:29;10.45;;;5.10;;
19219;SDS011;9744;49.364;7.484;2023-07-08T08:53:00;12.85;;;5.97;;
19219;SDS011;9744;49.364;7.484;2023-07-08T08:55:30;9.40;;;5.15;;
19219;SDS011;9744;49.364;7.484;2023-07-08T08:58:02;9.18;;;5.22;;
19219;SDS011;9744;49.364;7.484;2023-07-08T09:00:44;13.77;;;5.82;;
19219;SDS011;9744;49.364;7.484;2023-07-08T09:03:17;12.73;;;4.88;;
19219;SDS011;9744;49.364;7.484;2023-07-08T09:06:04;9.68;;;4.72;;
19219;SDS011;9744;49.364;7.484;2023-07-08T09:08:43;6.90;;;4.97;;
19219;SDS011;9744;49.364;7.484;2023-07-08T09:14:12;12.57;;;5.75;;
19219;SDS011;9744;49.364;7.484;2023-07-08T09:16:44;11.40;;;4.88;;
19219;SDS011;9744;49.364;7.484;2023-07-08T09:19:21;8.23;;;4.43;;
19219;SDS011;9744;49.364;7.484;2023-07-08T09:21:51;12.13;;;4.95;;
19219;SDS011;9744;49.364;7.484;2023-07-08T09:24:26;8.38;;;4.68;;
19219;SDS011;9744;49.364;7.484;2023-07-08T09:26:58;10.57;;;4.30;;
19219;SDS011;9744;49.364;7.484;2023-07-08T09:29:30;7.18;;;4.65;;
19219;SDS011;9744;49.364;7.484;2023-07-08T09:31:59;8.48;;;4.35;;
19219;SDS011;9744;49.364;7.484;2023-07-08T09:34:44;8.57;;;4.75;;
19219;SDS011;9744;49.364;7.484;2023-07-08T09:37:20;9.15;;;4.80;;
19219;SDS011;9744;49.364;7.484;2023-07-08T09:39:49;10.02;;;4.45;;
19219;SDS011;9744;49.364;7.484;2023-07-08T09:42:17;10.75;;;4.22;;
19219;SDS011;9744;49.364;7.484;2023-07-08T09:44:55;8.55;;;4.03;;
19219;SDS011;9744;49.364;7.484;2023-07-08T09:47:25;12.43;;;3.70;;
19219;SDS011;9744;49.364;7.484;2023-07-08T09:49:56;6.80;;;4.22;;
19219;SDS011;9744;49.364;7.484;2023-07-08T09:52:24;9.43;;;3.88;;
19219;SDS011;9744;49.364;7.484;2023-07-08T09:54:52;9.98;;;4.10;;
19219;SDS011;9744;49.364;7.484;2023-07-08T09:57:24;8.90;;;4.10;;
19219;SDS011;9744;49.364;7.484;2023-07-08T09:59:56;6.75;;;3.53;;
19219;SDS011;9744;49.364;7.484;2023-07-08T10:02:31;9.45;;;4.20;;
19219;SDS011;9744;49.364;7.484;2023-07-08T10:05:09;10.15;;;3.90;;
19219;SDS011;9744;49.364;7.484;2023-07-08T10:07:40;7.72;;;4.20;;
19219;SDS011;9744;49.364;7.484;2023-07-08T10:10:10;6.75;;;4.15;;
19219;SDS011;9744;49.364;7.484;2023-07-08T10:12:46;5.78;;;3.85;;
19219;SDS011;9744;49.364;7.484;2023-07-08T10:15:22;6.10;;;3.33;;
19219;SDS011;9744;49.364;7.484;2023-07-08T10:17:54;8.13;;;3.40;;
19219;SDS011;9744;49.364;7.484;2023-07-08T10:20:22;6.63;;;3.28;;
19219;SDS011;9744;49.364;7.484;2023-07-08T10:22:54;9.68;;;3.63;;
19219;SDS011;9744;49.364;7.484;2023-07-08T10:25:32;5.75;;;3.47;;
19219;SDS011;9744;49.364;7.484;2023-07-08T10:28:13;6.25;;;3.53;;
19219;SDS011;9744;49.364;7.484;2023-07-08T10:30:55;6.72;;;3.97;;
19219;SDS011;9744;49.364;7.484;2023-07-08T10:33:36;10.50;;;3.85;;
19219;SDS011;9744;49.364;7.484;2023-07-08T10:36:19;8.27;;;3.80;;
19219;SDS011;9744;49.364;7.484;2023-07-08T10:38:54;8.40;;;3.40;;
19219;SDS011;9744;49.364;7.484;2023-07-08T10:41:49;7.93;;;3.53;;
19219;SDS011;9744;49.364;7.484;2023-07-08T10:44:28;10.18;;;3.83;;
19219;SDS011;9744;49.364;7.484;2023-07-08T10:47:05;10.50;;;3.78;;
19219;SDS011;9744;49.364;7.484;2023-07-08T10:49:52;8.32;;;3.92;;
19219;SDS011;9744;49.364;7.484;2023-07-08T10:52:35;8.25;;;3.50;;
19219;SDS011;9744;49.364;7.484;2023-07-08T10:55:14;6.78;;;3.78;;
19219;SDS011;9744;49.364;7.484;2023-07-08T10:57:58;7.53;;;3.80;;
19219;SDS011;9744;49.364;7.484;2023-07-08T11:00:48;7.15;;;3.90;;
19219;SDS011;9744;49.364;7.484;2023-07-08T11:03:29;7.78;;;3.25;;
19219;SDS011;9744;49.364;7.484;2023-07-08T11:06:18;5.68;;;3.45;;
19219;SDS011;9744;49.364;7.484;2023-07-08T11:08:50;10.20;;;3.60;;
19219;SDS011;9744;49.364;7.484;2023-07-08T11:11:26;12.45;;;3.80;;
19219;SDS011;9744;49.364;7.484;2023-07-08T11:13:59;6.75;;;3.45;;
19219;SDS011;9744;49.364;7.484;2023-07-08T11:16:36;5.30;;;3.40;;
19219;SDS011;9744;49.364;7.484;2023-07-08T11:19:12;11.30;;;3.53;;
19219;SDS011;9744;49.364;7.484;2023-07-08T11:21:46;5.93;;;4.10;;
19219;SDS011;9744;49.364;7.484;2023-07-08T11:24:19;6.88;;;3.20;;
19219;SDS011;9744;49.364;7.484;2023-07-08T11:26:53;11.25;;;3.22;;
19219;SDS011;9744;49.364;7.484;2023-07-08T11:29:24;11.35;;;3.67;;
19219;SDS011;9744;49.364;7.484;2023-07-08T11:31:56;12.82;;;3.60;;
19219;SDS011;9744;49.364;7.484;2023-07-08T11:34:25;10.75;;;3.25;;
19219;SDS011;9744;49.364;7.484;2023-07-08T11:36:54;11.55;;;3.33;;
19219;SDS011;9744;49.364;7.484;2023-07-08T11:39:28;12.90;;;4.07;;
19219;SDS011;9744;49.364;7.484;2023-07-08T11:42:03;8.20;;;3.97;;
19219;SDS011;9744;49.364;7.484;2023-07-08T11:44:41;7.05;;;3.35;;
19219;SDS011;9744;49.364;7.484;2023-07-08T11:47:12;8.60;;;4.20;;
19219;SDS011;9744;49.364;7.484;2023-07-08T11:49:47;9.10;;;3.45;;
19219;SDS011;9744;49.364;7.484;2023-07-08T11:52:17;10.80;;;3.58;;
19219;SDS011;9744;49.364;7.484;2023-07-08T11:54:46;11.32;;;3.30;;
19219;SDS011;9744;49.364;7.484;2023-07-08T11:57:16;7.38;;;3.38;;
19219;SDS011;9744;49.364;7.484;2023-07-08T11:59:45;9.63;;;3.33;;
19219;SDS011;9744;49.364;7.484;2023-07-08T12:02:14;6.80;;;3.50;;
19219;SDS011;9744;49.364;7.484;2023-07-08T12:04:55;7.78;;;3.22;;
19219;SDS011;9744;49.364;7.484;2023-07-08T12:07:30;8.25;;;2.90;;
19219;SDS011;9744;49.364;7.484;2023-07-08T12:09:59;6.72;;;3.08;;
19219;SDS011;9744;49.364;7.484;2023-07-08T12:12:33;10.95;;;3.22;;
19219;SDS011;9744;49.364;7.484;2023-07-08T12:15:09;7.43;;;3.35;;
19219;SDS011;9744;49.364;7.484;2023-07-08T12:17:40;10.02;;;3.78;;
19219;SDS011;9744;49.364;7.484;2023-07-08T12:20:13;6.38;;;2.90;;
19219;SDS011;9744;49.364;7.484;2023-07-08T12:22:45;4.22;;;2.47;;
19219;SDS011;9744;49.364;7.484;2023-07-08T12:25:13;7.70;;;3.40;;
19219;SDS011;9744;49.364;7.484;2023-07-08T12:27:44;5.35;;;3.00;;
19219;SDS011;9744;49.364;7.484;2023-07-08T12:30:13;5.97;;;3.10;;
19219;SDS011;9744;49.364;7.484;2023-07-08T12:32:41;5.13;;;3.15;;
19219;SDS011;9744;49.364;7.484;2023-07-08T12:35:17;6.65;;;2.97;;
19219;SDS011;9744;49.364;7.484;2023-07-08T12:37:50;9.05;;;3.22;;
19219;SDS011;9744;49.364;7.484;2023-07-08T12:40:20;6.68;;;3.30;;
19219;SDS011;9744;49.364;7.484;2023-07-08T12:42:48;7.15;;;3.40;;
19219;SDS011;9744;49.364;7.484;2023-07-08T12:45:17;13.30;;;3.13;;
19219;SDS011;9744;49.364;7.484;2023-07-08T12:47:47;6.40;;;3.22;;
19219;SDS011;9744;49.364;7.484;2023-07-08T12:50:16;5.18;;;2.78;;
19219;SDS011;9744;49.364;7.484;2023-07-08T12:52:43;4.10;;;2.80;;
19219;SDS011;9744;49.364;7.484;2023-07-08T12:55:11;11.35;;;3.35;;
19219;SDS011;9744;49.364;7.484;2023-07-08T12:57:40;9.35;;;3.28;;
19219;SDS011;9744;49.364;7.484;2023-07-08T13:00:10;9.50;;;3.00;;
19219;SDS011;9744;49.364;7.484;2023-07-08T13:02:43;9.35;;;3.50;;
19219;SDS011;9744;49.364;7.484;2023-07-08T13:05:12;6.30;;;2.97;;
19219;SDS011;9744;49.364;7.484;2023-07-08T13:07:42;7.03;;;3.10;;
19219;SDS011;9744;49.364;7.484;2023-07-08T13:10:16;4.60;;;2.88;;
19219;SDS011;9744;49.364;7.484;2023-07-08T13:12:46;7.40;;;3.30;;
19219;SDS011;9744;49.364;7.484;2023-07-08T13:15:18;4.13;;;2.83;;
19219;SDS011;9744;49.364;7.484;2023-07-08T13:17:49;6.78;;;3.20;;
19219;SDS011;9744;49.364;7.484;2023-07-08T13:20:16;9.35;;;3.25;;
19219;SDS011;9744;49.364;7.484;2023-07-08T13:22:46;8.70;;;3.47;;
19219;SDS011;9744;49.364;7.484;2023-07-08T13:25:18;4.75;;;3.10;;
19219;SDS011;9744;49.364;7.484;2023-07-08T13:27:55;6.63;;;3.30;;
19219;SDS011;9744;49.364;7.484;2023-07-08T13:30:25;5.90;;;2.88;;
19219;SDS011;9744;49.364;7.484;2023-07-08T13:32:54;8.52;;;3.17;;
19219;SDS011;9744;49.364;7.484;2023-07-08T13:35:23;6.68;;;3.15;;
19219;SDS011;9744;49.364;7.484;2023-07-08T13:37:56;11.05;;;3.20;;
19219;SDS011;9744;49.364;7.484;2023-07-08T13:40:26;8.05;;;3.20;;
19219;SDS011;9744;49.364;7.484;2023-07-08T13:42:54;8.02;;;3.20;;
19219;SDS011;9744;49.364;7.484;2023-07-08T13:45:24;5.20;;;3.28;;
19219;SDS011;9744;49.364;7.484;2023-07-08T13:48:00;6.80;;;3.30;;
19219;SDS011;9744;49.364;7.484;2023-07-08T13:50:31;7.78;;;3.05;;
19219;SDS011;9744;49.364;7.484;2023-07-08T13:53:17;8.15;;;5.70;;
19219;SDS011;9744;49.364;7.484;2023-07-08T13:55:47;5.07;;;3.50;;
19219;SDS011;9744;49.364;7.484;2023-07-08T13:58:15;10.65;;;3.50;;
19219;SDS011;9744;49.364;7.484;2023-07-08T14:00:44;6.03;;;2.90;;
19219;SDS011;9744;49.364;7.484;2023-07-08T14:03:11;13.18;;;3.60;;
19219;SDS011;9744;49.364;7.484;2023-07-08T14:05:43;7.45;;;3.67;;
19219;SDS011;9744;49.364;7.484;2023-07-08T14:08:12;8.15;;;3.25;;
19219;SDS011;9744;49.364;7.484;2023-07-08T14:10:42;6.93;;;3.00;;
19219;SDS011;9744;49.364;7.484;2023-07-08T14:13:10;5.10;;;2.53;;
19219;SDS011;9744;49.364;7.484;2023-07-08T14:15:37;7.20;;;3.10;;
19219;SDS011;9744;49.364;7.484;2023-07-08T14:18:05;5.80;;;2.67;;
19219;SDS011;9744;49.364;7.484;2023-07-08T14:20:36;5.35;;;3.30;;
19219;SDS011;9744;49.364;7.484;2023-07-08T14:23:03;6.35;;;2.85;;
19219;SDS011;9744;49.364;7.484;2023-07-08T14:25:30;5.10;;;2.63;;
19219;SDS011;9744;49.364;7.484;2023-07-08T14:27:59;4.28;;;2.97;;
19219;SDS011;9744;49.364;7.484;2023-07-08T14:30:28;4.05;;;2.85;;
19219;SDS011;9744;49.364;7.484;2023-07-08T14:32:55;6.70;;;2.90;;
19219;SDS011;9744;49.364;7.484;2023-07-08T14:35:24;6.53;;;3.25;;
19219;SDS011;9744;49.364;7.484;2023-07-08T14:37:54;13.18;;;4.70;;
19219;SDS011;9744;49.364;7.484;2023-07-08T14:40:24;7.47;;;3.78;;
19219;SDS011;9744;49.364;7.484;2023-07-08T14:42:55;5.38;;;2.92;;
19219;SDS011;9744;49.364;7.484;2023-07-08T14:45:28;11.13;;;3.35;;
19219;SDS011;9744;49.364;7.484;2023-07-08T14:47:58;6.03;;;3.20;;
19219;SDS011;9744;49.364;7.484;2023-07-08T14:50:26;8.57;;;2.95;;
19219;SDS011;9744;49.364;7.484;2023-07-08T14:52:55;7.53;;;3.17;;
19219;SDS011;9744;49.364;7.484;2023-07-08T14:55:22;6.25;;;3.28;;
19219;SDS011;9744;49.364;7.484;2023-07-08T14:57:50;9.40;;;3.30;;
19219;SDS011;9744;49.364;7.484;2023-07-08T15:00:18;9.82;;;3.47;;
19219;SDS011;9744;49.364;7.484;2023-07-08T15:02:47;7.15;;;3.03;;
19219;SDS011;9744;49.364;7.484;2023-07-08T15:05:17;5.85;;;2.85;;
19219;SDS011;9744;49.364;7.484;2023-07-08T15:07:48;8.48;;;3.28;;
19219;SDS011;9744;49.364;7.484;2023-07-08T15:10:16;4.32;;;2.95;;
19219;SDS011;9744;49.364;7.484;2023-07-08T15:12:43;9.45;;;3.17;;
19219;SDS011;9744;49.364;7.484;2023-07-08T15:15:14;7.07;;;3.28;;
19219;SDS011;9744;49.364;7.484;2023-07-08T15:17:43;7.93;;;2.53;;